Time;durP1;ratioP1;P1;durP2;ratioP2;P2;SDS_P1;SDS_P2;PMS_P1;PMS_P2;Temp;Humidity;BMP_temperature;BMP_pressure;BME280_temperature;BME280_humidity;BME280_pressure;Samples;Min_cycle;Max_cycle;Signal;HPM_P1;HPM_P2
2023/06/24 00:01:18;;;;;;;0.10;0.00;;;;;;;19.61;100.00;100471.69;7401918;19;20370;-57
2023/06/24 00:03:46;;;;;;;0.80;0.10;;;;;;;19.36;100.00;100470.03;7398258;19;20044;-57
2023/06/24 00:06:18;;;;;;;0.47;0.10;;;;;;;18.97;100.00;100477.91;7398605;19;20007;-57
2023/06/24 00:08:45;;;;;;;0.55;0.10;;;;;;;18.73;100.00;100486.91;7399017;19;20474;-57
2023/06/24 00:11:12;;;;;;;0.20;0.13;;;;;;;18.64;100.00;100486.44;7400603;19;20340;-57
2023/06/24 00:13:40;;;;;;;0.08;0.00;;;;;;;18.69;100.00;100488.50;7399825;19;20016;-58
2023/06/24 00:16:06;;;;;;;0.85;0.15;;;;;;;18.63;100.00;100487.72;7398643;19;20014;-57
2023/06/24 00:18:33;;;;;;;0.15;0.15;;;;;;;18.53;100.00;100486.47;7398799;19;20014;-57
2023/06/24 00:21:01;;;;;;;0.40;0.20;;;;;;;18.76;100.00;100476.66;7399625;19;20015;-57
2023/06/24 00:23:28;;;;;;;5.53;0.40;;;;;;;18.91;100.00;100482.78;7397477;19;20015;-57
2023/06/24 00:25:55;;;;;;;0.35;0.13;;;;;;;18.77;100.00;100481.03;7401486;19;20014;-57
2023/06/24 00:28:22;;;;;;;1.55;0.47;;;;;;;19.06;100.00;100471.94;7398428;19;20038;-57
2023/06/24 00:30:49;;;;;;;0.77;0.20;;;;;;;18.82;100.00;100469.72;7395178;19;19999;-57
2023/06/24 00:33:16;;;;;;;0.22;0.10;;;;;;;18.62;100.00;100483.38;7396254;19;20070;-57
2023/06/24 00:35:45;;;;;;;1.05;0.57;;;;;;;18.70;100.00;100473.88;7398290;19;20074;-57
2023/06/24 00:38:11;;;;;;;0.85;0.22;;;;;;;18.76;100.00;100473.84;7396397;19;20033;-57
2023/06/24 00:40:38;;;;;;;0.20;0.10;;;;;;;19.09;100.00;100481.44;7398558;19;20011;-57
2023/06/24 00:43:06;;;;;;;1.25;0.10;;;;;;;20.10;100.00;100471.84;7396291;19;20006;-57
2023/06/24 00:45:34;;;;;;;0.63;0.20;;;;;;;19.58;100.00;100471.97;7397132;19;20050;-57
2023/06/24 00:48:01;;;;;;;1.08;0.57;;;;;;;19.21;100.00;100478.03;7398214;19;20010;-57
2023/06/24 00:50:27;;;;;;;0.50;0.10;;;;;;;19.66;100.00;100472.97;7394072;19;20017;-57
2023/06/24 00:52:53;;;;;;;0.45;0.35;;;;;;;19.76;100.00;100479.03;7396756;19;20010;-57
2023/06/24 00:55:22;;;;;;;0.38;0.13;;;;;;;19.61;100.00;100483.00;7400247;19;20594;-57
2023/06/24 00:57:53;;;;;;;0.10;0.10;;;;;;;19.41;100.00;100472.06;7397085;19;20081;-57
2023/06/24 01:00:20;;;;;;;1.02;0.55;;;;;;;20.30;100.00;100482.75;7397365;19;20017;-57
2023/06/24 01:02:48;;;;;;;0.10;0.10;;;;;;;19.93;100.00;100474.03;7397115;19;20011;-57
2023/06/24 01:05:14;;;;;;;0.22;0.10;;;;;;;20.24;100.00;100476.41;7395973;19;20451;-57
2023/06/24 01:07:42;;;;;;;3.33;0.47;;;;;;;20.27;100.00;100478.19;7397020;19;20074;-57
2023/06/24 01:10:12;;;;;;;0.40;0.20;;;;;;;20.05;100.00;100479.09;7393588;19;20048;-57
2023/06/24 01:12:40;;;;;;;0.10;0.00;;;;;;;19.62;100.00;100481.69;7397665;19;20018;-57
2023/06/24 01:15:09;;;;;;;1.75;0.30;;;;;;;19.35;100.00;100493.16;7397495;19;20095;-56
2023/06/24 01:17:44;;;;;;;0.73;0.10;;;;;;;20.37;100.00;100482.97;7397045;19;20345;-56
2023/06/24 01:20:22;;;;;;;0.52;0.20;;;;;;;19.57;100.00;100479.69;7395773;19;20022;-56
2023/06/24 01:23:09;;;;;;;0.22;0.22;;;;;;;19.17;100.00;100494.47;7396582;19;20010;-57
2023/06/24 01:25:57;;;;;;;0.10;0.10;;;;;;;18.91;100.00;100499.72;7399439;19;20014;-56
2023/06/24 01:28:35;;;;;;;1.27;0.20;;;;;;;19.04;100.00;100502.75;7395969;19;20014;-56
2023/06/24 01:31:07;;;;;;;0.47;0.17;;;;;;;19.82;100.00;100482.59;7397533;19;20019;-56
2023/06/24 01:33:42;;;;;;;5.07;0.20;;;;;;;19.12;100.00;100491.69;7395071;19;20050;-57
2023/06/24 01:36:12;;;;;;;1.08;0.40;;;;;;;19.32;100.00;100492.09;7396437;19;20473;-56
2023/06/24 01:39:03;;;;;;;0.20;0.20;;;;;;;19.55;100.00;100485.09;7395376;19;20335;-56
2023/06/24 01:41:35;;;;;;;1.60;0.22;;;;;;;20.76;100.00;100482.56;7396621;19;20243;-56
2023/06/24 01:44:03;;;;;;;1.23;0.20;;;;;;;19.49;100.00;100490.00;7396175;19;20014;-56
2023/06/24 01:46:29;;;;;;;1.55;0.32;;;;;;;20.32;100.00;100483.00;7393243;19;20048;-56
2023/06/24 01:49:01;;;;;;;0.47;0.20;;;;;;;20.06;100.00;100477.78;7394186;19;20021;-56
2023/06/24 01:51:29;;;;;;;0.47;0.10;;;;;;;19.40;100.00;100484.66;7398103;19;20010;-56
2023/06/24 01:54:10;;;;;;;1.35;0.30;;;;;;;19.70;100.00;100483.97;7393926;19;20017;-56
2023/06/24 01:56:39;;;;;;;0.38;0.10;;;;;;;19.55;100.00;100468.16;7392043;19;20010;-56
2023/06/24 01:59:07;;;;;;;0.45;0.13;;;;;;;19.14;100.00;100478.59;7393203;19;20031;-56
2023/06/24 02:01:35;;;;;;;0.22;0.10;;;;;;;18.79;100.00;100489.75;7397339;19;20022;-56
2023/06/24 02:04:04;;;;;;;8.65;0.35;;;;;;;31.42;100.00;100457.25;7397253;19;20010;-57
2023/06/24 02:06:31;;;;;;;0.30;0.30;;;;;;;20.82;100.00;100476.84;7393810;19;20019;-57
2023/06/24 02:09:01;;;;;;;0.10;0.10;;;;;;;19.40;100.00;100484.66;7393269;19;20014;-57
2023/06/24 02:11:31;;;;;;;0.52;0.20;;;;;;;19.00;100.00;100490.97;7394675;19;20020;-57
2023/06/24 02:13:59;;;;;;;0.43;0.20;;;;;;;18.87;100.00;100493.56;7393616;19;20019;-56
2023/06/24 02:16:27;;;;;;;0.10;0.10;;;;;;;18.83;100.00;100488.19;7397744;19;20018;-56
2023/06/24 02:18:55;;;;;;;0.50;0.15;;;;;;;18.79;100.00;100489.75;7393918;19;20018;-56
2023/06/24 02:21:24;;;;;;;0.73;0.20;;;;;;;18.80;100.00;100483.56;7394132;19;20467;-56
2023/06/24 02:23:52;;;;;;;0.55;0.22;;;;;;;18.62;100.00;100489.03;7394518;19;20019;-56
2023/06/24 02:26:19;;;;;;;5.32;0.20;;;;;;;18.61;100.00;100484.66;7396302;19;20018;-56
2023/06/24 02:28:46;;;;;;;0.85;0.28;;;;;;;18.51;100.00;100480.56;7396822;19;20022;-57
2023/06/24 02:31:13;;;;;;;0.85;0.43;;;;;;;19.09;100.00;100482.19;7392986;19;20019;-57
2023/06/24 02:33:39;;;;;;;3.97;0.20;;;;;;;20.11;100.00;100470.56;7393809;19;20017;-57
2023/06/24 02:36:05;;;;;;;0.68;0.10;;;;;;;19.70;100.00;100467.00;7392684;19;20027;-67
2023/06/24 02:38:32;;;;;;;0.20;0.10;;;;;;;19.81;100.00;100467.72;7393076;19;20018;-61
2023/06/24 02:40:58;;;;;;;3.45;0.20;;;;;;;19.52;100.00;100466.34;7398388;19;20010;-60
2023/06/24 02:43:24;;;;;;;1.20;0.10;;;;;;;18.93;100.00;100480.19;7393734;19;20340;-57
2023/06/24 02:45:52;;;;;;;0.85;0.10;;;;;;;18.72;100.00;100473.34;7393945;19;20351;-57
2023/06/24 02:48:20;;;;;;;3.50;0.40;;;;;;;19.17;100.00;100483.19;7394332;19;20021;-57
2023/06/24 02:50:47;;;;;;;0.40;0.10;;;;;;;19.68;100.00;100465.47;7390914;19;20021;-57
2023/06/24 02:53:15;;;;;;;1.10;0.28;;;;;;;18.90;100.00;100464.31;7393714;19;20010;-57
2023/06/24 02:55:42;;;;;;;2.95;0.70;;;;;;;18.76;100.00;100466.16;7396058;19;20017;-57
2023/06/24 02:58:09;;;;;;;5.72;0.57;;;;;;;18.77;100.00;100462.06;7392465;19;20010;-57
2023/06/24 03:00:53;;;;;;;0.65;0.28;;;;;;;19.03;100.00;100461.69;7395038;19;20002;-57
2023/06/24 03:03:22;;;;;;;1.35;0.30;;;;;;;18.52;100.00;100462.34;7394420;19;20038;-56
2023/06/24 03:05:54;;;;;;;0.70;0.45;;;;;;;18.69;100.00;100461.03;7394053;19;20483;-57
2023/06/24 03:08:21;;;;;;;0.35;0.15;;;;;;;18.78;100.00;100457.16;7392519;19;20346;-56
2023/06/24 03:10:57;;;;;;;0.40;0.40;;;;;;;19.31;100.00;100459.50;7390141;19;20015;-57
2023/06/24 03:13:25;;;;;;;8.85;0.50;;;;;;;19.92;100.00;100450.69;7391151;19;20011;-57
2023/06/24 03:15:58;;;;;;;1.60;0.30;;;;;;;19.33;100.00;100451.28;7393077;19;20029;-56
2023/06/24 03:18:25;;;;;;;2.70;0.40;;;;;;;19.58;100.00;100457.81;7391474;19;20038;-56
2023/06/24 03:20:52;;;;;;;0.70;0.32;;;;;;;19.87;100.00;100447.88;7391419;19;20013;-57
2023/06/24 03:23:22;;;;;;;0.80;0.28;;;;;;;18.94;100.00;100445.06;7391764;19;20010;-57
2023/06/24 03:25:48;;;;;;;0.20;0.10;;;;;;;18.71;100.00;100447.16;7394965;19;20022;-56
2023/06/24 03:28:16;;;;;;;0.57;0.22;;;;;;;18.76;100.00;100448.44;7394001;19;20010;-57
2023/06/24 03:30:46;;;;;;;2.65;0.43;;;;;;;19.18;100.00;100445.19;7389122;19;20011;-56
2023/06/24 03:33:17;;;;;;;0.45;0.20;;;;;;;18.93;100.00;100447.09;7392369;19;20015;-57
2023/06/24 03:35:44;;;;;;;0.38;0.30;;;;;;;18.86;100.00;100447.63;7398511;19;20049;-57
2023/06/24 03:38:13;;;;;;;0.40;0.30;;;;;;;19.36;100.00;100441.78;7398732;19;20042;-57
2023/06/24 03:40:40;;;;;;;0.88;0.10;;;;;;;19.06;100.00;100443.69;7402765;19;20026;-57
2023/06/24 03:43:06;;;;;;;0.38;0.00;;;;;;;19.00;100.00;100445.00;7399247;19;20038;-57
2023/06/24 03:45:33;;;;;;;0.52;0.20;;;;;;;19.12;100.00;100441.66;7398399;19;20011;-57
2023/06/24 03:47:59;;;;;;;0.38;0.10;;;;;;;19.49;100.00;100446.88;7398516;19;20482;-57
2023/06/24 03:50:25;;;;;;;0.28;0.08;;;;;;;19.24;100.00;100439.50;7396226;19;20018;-56
2023/06/24 03:52:52;;;;;;;0.20;0.15;;;;;;;21.33;100.00;100421.13;7394299;19;20017;-57
2023/06/24 03:55:18;;;;;;;0.60;0.28;;;;;;;21.23;100.00;100420.75;7397334;19;20383;-57
2023/06/24 03:57:44;;;;;;;0.40;0.00;;;;;;;22.25;100.00;100414.50;7396163;19;20354;-57
2023/06/24 04:00:15;;;;;;;0.32;0.20;;;;;;;20.25;100.00;100427.78;7396027;19;20756;-56
2023/06/24 04:02:45;;;;;;;0.45;0.20;;;;;;;20.08;100.00;100413.00;7397975;19;20487;-56
2023/06/24 04:05:11;;;;;;;1.17;0.50;;;;;;;19.88;100.00;100427.56;7395804;19;20038;-57
2023/06/24 04:07:39;;;;;;;0.43;0.17;;;;;;;26.25;100.00;100411.34;7399592;19;20011;-56
2023/06/24 04:10:09;;;;;;;0.50;0.25;;;;;;;31.37;100.00;100415.84;7398240;19;20023;-57
2023/06/24 04:12:36;;;;;;;1.15;0.25;;;;;;;38.99;62.69;100414.78;7399441;19;20014;-56
2023/06/24 04:15:04;;;;;;;3.30;0.40;;;;;;;32.98;72.47;100422.84;7398706;19;20375;-56
2023/06/24 04:17:32;;;;;;;0.85;0.25;;;;;;;37.54;71.32;100427.75;7398199;19;20018;-56
2023/06/24 04:19:59;;;;;;;0.65;0.30;;;;;;;41.70;49.92;100413.88;7397134;19;20015;-56
2023/06/24 04:22:26;;;;;;;0.65;0.28;;;;;;;38.56;52.87;100431.81;7399162;19;20107;-56
2023/06/24 04:24:56;;;;;;;0.38;0.15;;;;;;;41.82;46.61;100409.16;7398796;19;20022;-57
2023/06/24 04:27:23;;;;;;;0.50;0.32;;;;;;;42.57;43.49;100414.25;7397935;19;20038;-57
2023/06/24 04:29:50;;;;;;;2.38;0.40;;;;;;;42.50;42.52;100404.56;7396234;19;20031;-57
2023/06/24 04:32:16;;;;;;;2.35;0.50;;;;;;;42.61;41.27;100400.47;7397118;19;20469;-57
2023/06/24 04:34:42;;;;;;;0.75;0.13;;;;;;;34.40;55.34;100408.22;7396237;19;20463;-57
2023/06/24 04:37:08;;;;;;;0.85;0.35;;;;;;;31.21;85.50;100417.53;7395914;19;20402;-56
2023/06/24 04:39:35;;;;;;;5.97;0.22;;;;;;;32.49;78.92;100416.69;7398630;19;20018;-56
2023/06/24 04:42:01;;;;;;;0.57;0.20;;;;;;;33.16;74.76;100424.84;7398100;19;20010;-56
2023/06/24 04:44:27;;;;;;;0.40;0.10;;;;;;;33.11;74.17;100423.09;7397036;19;20022;-60
2023/06/24 04:46:54;;;;;;;1.33;0.30;;;;;;;33.44;73.74;100415.16;7396844;19;20367;-60
2023/06/24 04:49:20;;;;;;;2.15;0.43;;;;;;;32.86;73.17;100419.91;7395737;19;20027;-61
2023/06/24 04:51:46;;;;;;;1.20;0.50;;;;;;;36.31;59.58;100418.53;7399353;19;20003;-61
2023/06/24 04:54:12;;;;;;;2.13;0.47;;;;;;;36.10;62.89;100413.03;7398493;19;20463;-61
2023/06/24 04:56:39;;;;;;;3.08;0.57;;;;;;;33.52;69.19;100418.59;7397858;19;20025;-61
2023/06/24 04:59:05;;;;;;;1.65;0.52;;;;;;;30.89;88.92;100423.75;7397934;19;20354;-61
2023/06/24 05:01:32;;;;;;;0.45;0.10;;;;;;;31.86;85.32;100419.41;7402191;19;20021;-60
2023/06/24 05:03:58;;;;;;;2.08;0.55;;;;;;;30.87;89.98;100420.72;7398386;19;20025;-60
2023/06/24 05:06:24;;;;;;;2.10;0.35;;;;;;;32.42;81.97;100411.09;7397844;19;20465;-56
2023/06/24 05:08:50;;;;;;;1.05;0.30;;;;;;;32.71;79.70;100418.19;7396624;19;20010;-56
2023/06/24 05:11:16;;;;;;;0.80;0.28;;;;;;;32.90;78.12;100420.94;7396918;19;20011;-56
2023/06/24 05:13:42;;;;;;;1.98;0.45;;;;;;;32.89;78.37;100422.31;7398233;19;20028;-56
2023/06/24 05:16:08;;;;;;;0.43;0.30;;;;;;;32.97;78.17;100419.22;7397511;19;20033;-61
2023/06/24 05:18:34;;;;;;;2.40;0.65;;;;;;;32.39;81.90;100418.84;7398624;19;20038;-56
2023/06/24 05:21:00;;;;;;;0.22;0.13;;;;;;;38.37;60.38;100415.72;7396874;19;20018;-59
2023/06/24 05:23:27;;;;;;;0.30;0.13;;;;;;;34.35;68.26;100427.47;7397978;19;20007;-57
2023/06/24 05:25:53;;;;;;;2.70;0.20;;;;;;;33.75;70.98;100426.53;7400818;19;20024;-61
2023/06/24 05:28:19;;;;;;;2.45;0.80;;;;;;;33.35;72.73;100424.66;7397833;19;20011;-61
2023/06/24 05:30:46;;;;;;;2.75;0.47;;;;;;;33.02;75.11;100417.38;7394741;19;20025;-61
2023/06/24 05:33:12;;;;;;;0.73;0.20;;;;;;;32.77;76.17;100423.63;7396646;19;20034;-57
2023/06/24 05:35:40;;;;;;;1.15;0.75;;;;;;;32.99;75.87;100421.47;7395732;19;20018;-88
2023/06/24 05:38:06;;;;;;;0.50;0.15;;;;;;;33.19;75.17;100420.72;7393593;19;20356;-88
2023/06/24 05:40:33;;;;;;;0.80;0.20;;;;;;;31.77;84.10;100434.56;7402201;19;20022;-89
2023/06/24 05:43:00;;;;;;;0.38;0.22;;;;;;;33.42;74.05;100434.47;7401434;19;20014;-89
2023/06/24 05:45:26;;;;;;;4.07;0.55;;;;;;;33.36;74.65;100428.31;7393266;19;20022;-89
2023/06/24 05:47:53;;;;;;;1.33;0.28;;;;;;;33.31;74.77;100423.66;7395990;19;20033;-88
2023/06/24 05:50:19;;;;;;;1.67;0.32;;;;;;;40.75;51.16;100422.38;7394773;19;20023;-88
2023/06/24 05:52:45;;;;;;;4.18;0.40;;;;;;;38.52;57.47;100420.00;7392986;19;20018;-88
2023/06/24 05:55:13;;;;;;;3.25;0.50;;;;;;;41.09;48.74;100423.56;7394320;19;20018;-89
2023/06/24 05:57:40;;;;;;;1.27;0.25;;;;;;;42.56;43.59;100425.22;7393368;19;20022;-88
2023/06/24 06:00:06;;;;;;;4.65;0.90;;;;;;;37.75;48.02;100430.25;7397037;19;20031;-89
2023/06/24 06:02:38;;;;;;;1.95;0.40;;;;;;;33.03;67.43;100436.97;7397305;19;20015;-88
2023/06/24 06:05:05;;;;;;;4.22;0.52;;;;;;;31.57;79.53;100439.63;7395922;19;20021;-89
2023/06/24 06:07:31;;;;;;;2.30;0.55;;;;;;;31.03;84.53;100436.34;7392843;19;20364;-89
2023/06/24 06:09:57;;;;;;;0.68;0.30;;;;;;;30.55;90.58;100438.38;7393825;19;20015;-88
2023/06/24 06:12:23;;;;;;;2.05;0.82;;;;;;;39.21;57.53;100423.72;7398142;19;20022;-89
2023/06/24 06:14:49;;;;;;;2.83;0.63;;;;;;;31.61;82.53;100428.41;7392212;19;20021;-89
2023/06/24 06:17:15;;;;;;;1.85;0.40;;;;;;;30.77;88.98;100431.44;7394639;19;20033;-89
2023/06/24 06:19:41;;;;;;;1.15;0.30;;;;;;;30.14;95.27;100433.69;7393296;19;20014;-90
2023/06/24 06:22:08;;;;;;;1.55;0.32;;;;;;;31.17;91.18;100430.84;7397399;19;20074;-90
2023/06/24 06:24:34;;;;;;;6.90;0.65;;;;;;;28.77;100.00;100437.56;7395007;19;20480;-89
2023/06/24 06:27:00;;;;;;;7.93;0.60;;;;;;;28.11;100.00;100432.59;7395251;19;20025;-88
2023/06/24 06:29:26;;;;;;;0.82;0.20;;;;;;;27.73;100.00;100429.97;7405171;19;20026;-89
2023/06/24 06:31:52;;;;;;;3.88;0.30;;;;;;;28.38;100.00;100436.38;7401303;19;20042;-89
2023/06/24 06:34:19;;;;;;;0.63;0.43;;;;;;;28.54;100.00;100432.00;7392013;19;20086;-90
2023/06/24 06:36:45;;;;;;;0.85;0.50;;;;;;;28.91;100.00;100446.59;7392273;19;20014;-88
2023/06/24 06:39:11;;;;;;;4.55;0.40;;;;;;;28.58;100.00;100442.34;7393528;19;20109;-89
2023/06/24 06:41:37;;;;;;;0.30;0.15;;;;;;;28.38;100.00;100447.09;7402621;19;20090;-89
2023/06/24 06:44:04;;;;;;;0.55;0.40;;;;;;;28.63;100.00;100455.69;7401833;19;20018;-88
2023/06/24 06:46:30;;;;;;;2.08;0.47;;;;;;;28.83;100.00;100451.63;7393472;19;20022;-88
2023/06/24 06:48:56;;;;;;;0.90;0.47;;;;;;;29.28;100.00;100445.44;7394019;19;20029;-89
2023/06/24 06:51:24;;;;;;;1.30;0.30;;;;;;;29.27;100.00;100452.50;7395617;19;20022;-88
2023/06/24 06:53:50;;;;;;;0.40;0.35;;;;;;;29.75;100.00;100453.63;7391749;19;20041;-89
2023/06/24 06:56:24;;;;;;;2.05;0.30;;;;;;;29.81;100.00;100462.72;7397619;19;20017;-90
2023/06/24 06:58:51;;;;;;;1.63;0.10;;;;;;;30.01;100.00;100457.81;7393459;19;20050;-90
2023/06/24 07:01:18;;;;;;;0.75;0.40;;;;;;;30.25;100.00;100458.97;7394821;19;20045;-90
2023/06/24 07:03:44;;;;;;;2.33;0.57;;;;;;;30.53;100.00;100461.22;7391448;19;20031;-90
2023/06/24 07:06:11;;;;;;;1.95;0.50;;;;;;;31.42;99.70;100460.13;7388938;19;20019;-86
2023/06/24 07:08:37;;;;;;;0.70;0.30;;;;;;;30.87;100.00;100463.09;7393406;19;20402;-85
2023/06/24 07:11:03;;;;;;;1.67;0.45;;;;;;;29.91;100.00;100459.88;7397327;19;20023;-87
2023/06/24 07:13:29;;;;;;;2.00;0.50;;;;;;;30.43;100.00;100464.06;7397781;19;20003;-86
2023/06/24 07:15:55;;;;;;;1.45;0.20;;;;;;;30.24;100.00;100463.19;7395466;19;20074;-87
2023/06/24 07:18:21;;;;;;;1.38;0.50;;;;;;;30.32;100.00;100466.75;7397687;19;20070;-89
2023/06/24 07:20:48;;;;;;;1.85;0.32;;;;;;;30.14;100.00;100468.94;7399325;19;20031;-89
2023/06/24 07:23:14;;;;;;;0.40;0.40;;;;;;;29.97;100.00;100463.25;7399916;19;20090;-87
2023/06/24 07:25:40;;;;;;;0.88;0.20;;;;;;;30.76;100.00;100469.41;7398878;19;20038;-87
2023/06/24 07:28:07;;;;;;;0.30;0.20;;;;;;;29.99;100.00;100475.66;7398551;19;20018;-88
2023/06/24 07:30:33;;;;;;;2.45;0.30;;;;;;;30.41;100.00;100471.75;7397275;19;20018;-88
2023/06/24 07:33:05;;;;;;;1.95;0.10;;;;;;;32.58;95.89;100470.66;7398350;19;20011;-86
2023/06/24 07:35:34;;;;;;;1.05;0.30;;;;;;;31.84;98.83;100471.09;7397285;19;20386;-87
2023/06/24 07:38:00;;;;;;;0.70;0.38;;;;;;;25.88;100.00;100480.59;7397361;19;20027;-87
2023/06/24 07:40:26;;;;;;;1.48;0.57;;;;;;;23.03;100.00;100481.19;7398685;19;20006;-88
2023/06/24 07:42:53;;;;;;;0.95;0.50;;;;;;;22.12;100.00;100479.75;7396529;19;20362;-87
2023/06/24 07:45:20;;;;;;;2.22;0.32;;;;;;;21.77;100.00;100477.16;7395996;19;20444;-87
2023/06/24 07:47:46;;;;;;;3.97;1.20;;;;;;;21.84;100.00;100468.84;7397823;19;20544;-87
2023/06/24 07:50:12;;;;;;;2.35;0.47;;;;;;;21.79;100.00;100474.56;7395952;19;20173;-87
2023/06/24 07:52:38;;;;;;;4.22;0.32;;;;;;;21.87;100.00;100481.19;7398202;19;20135;-87
2023/06/24 07:55:05;;;;;;;2.30;0.43;;;;;;;21.97;100.00;100473.78;7398135;19;20026;-88
2023/06/24 07:57:31;;;;;;;0.57;0.20;;;;;;;22.21;100.00;100479.34;7398083;19;20074;-88
2023/06/24 07:59:57;;;;;;;0.10;0.00;;;;;;;22.24;100.00;100474.66;7399213;19;20006;-87
2023/06/24 08:02:24;;;;;;;0.60;0.10;;;;;;;22.46;100.00;100485.59;7401890;19;20014;-87
2023/06/24 08:04:50;;;;;;;1.02;0.20;;;;;;;22.55;100.00;100480.28;7396968;19;20020;-88
2023/06/24 08:07:16;;;;;;;1.27;0.35;;;;;;;22.81;100.00;100487.31;7398592;19;20027;-88
2023/06/24 08:09:42;;;;;;;2.95;0.38;;;;;;;22.74;100.00;100487.97;7396173;19;20026;-89
2023/06/24 08:12:09;;;;;;;0.35;0.35;;;;;;;22.73;100.00;100486.44;7400886;19;20011;-86
2023/06/24 08:14:35;;;;;;;0.35;0.13;;;;;;;22.57;100.00;100489.00;7396055;19;20359;-89
2023/06/24 08:17:01;;;;;;;0.57;0.10;;;;;;;22.70;100.00;100493.22;7397379;19;20011;-89
2023/06/24 08:19:28;;;;;;;0.65;0.30;;;;;;;22.58;100.00;100493.38;7397477;19;20039;-89
2023/06/24 08:21:54;;;;;;;0.35;0.20;;;;;;;22.55;100.00;100494.47;7399113;19;20593;-88
2023/06/24 08:24:20;;;;;;;0.20;0.05;;;;;;;22.73;100.00;100492.88;7398477;19;20427;-88
2023/06/24 08:26:46;;;;;;;0.28;0.10;;;;;;;23.02;100.00;100496.72;7397773;19;20014;-88
2023/06/24 08:29:12;;;;;;;0.47;0.10;;;;;;;23.33;100.00;100495.84;7398798;19;20018;-89
2023/06/24 08:31:38;;;;;;;0.20;0.10;;;;;;;23.24;100.00;100485.66;7399665;19;20014;-86
2023/06/24 08:34:06;;;;;;;0.20;0.10;;;;;;;23.24;100.00;100493.41;7396091;19;20018;-87
2023/06/24 08:36:32;;;;;;;2.50;0.20;;;;;;;23.29;100.00;100481.16;7396449;19;20051;-87
2023/06/24 08:38:58;;;;;;;0.10;0.00;;;;;;;23.49;100.00;100488.28;7395367;19;20089;-87
2023/06/24 08:41:25;;;;;;;0.88;0.57;;;;;;;24.09;100.00;100484.03;7396304;19;20053;-86
2023/06/24 08:43:53;;;;;;;0.50;0.10;;;;;;;24.25;100.00;100479.25;7395233;19;20011;-87
2023/06/24 08:46:20;;;;;;;2.00;0.10;;;;;;;30.01;100.00;100474.31;7395634;19;20373;-87
2023/06/24 08:48:48;;;;;;;0.10;0.00;;;;;;;34.12;100.00;100473.75;7396984;19;20014;-87
2023/06/24 08:51:21;;;;;;;0.20;0.03;;;;;;;33.35;100.00;100464.34;7394606;19;20070;-88
2023/06/24 08:53:48;;;;;;;1.85;0.00;;;;;;;29.17;100.00;100463.16;7395155;19;20018;-87
2023/06/24 08:56:15;;;;;;;4.07;0.15;;;;;;;25.96;100.00;100469.94;7396851;19;20021;-88
2023/06/24 08:58:41;;;;;;;0.00;0.00;;;;;;;31.73;100.00;100457.34;7394772;19;20322;-86
2023/06/24 09:01:08;;;;;;;0.10;0.05;;;;;;;26.53;100.00;100458.97;7397045;19;20398;-86
2023/06/24 09:03:35;;;;;;;0.10;0.00;;;;;;;25.32;100.00;100458.69;7396108;19;20014;-86
2023/06/24 09:06:01;;;;;;;0.20;0.00;;;;;;;24.57;100.00;100448.38;7393030;19;20090;-86
2023/06/24 09:08:27;;;;;;;0.10;0.05;;;;;;;33.82;100.00;100445.78;7394093;19;20015;-86
2023/06/24 09:10:55;;;;;;;0.30;0.10;;;;;;;26.75;100.00;100441.78;7393444;19;20500;-86
2023/06/24 09:13:27;;;;;;;0.20;0.00;;;;;;;25.24;100.00;100458.66;7394903;19;20015;-88
2023/06/24 09:15:53;;;;;;;0.30;0.00;;;;;;;24.61;100.00;100448.00;7394177;19;20019;-88
2023/06/24 09:18:19;;;;;;;0.40;0.08;;;;;;;24.23;100.00;100453.41;7395344;19;20032;-87
2023/06/24 09:20:49;;;;;;;0.00;0.00;;;;;;;24.20;100.00;100456.59;7396814;19;20019;-86
2023/06/24 09:23:16;;;;;;;0.45;0.00;;;;;;;25.36;100.00;100453.41;7394417;19;20455;-85
2023/06/24 09:25:43;;;;;;;0.68;0.32;;;;;;;26.34;100.00;100447.91;7396851;19;20055;-86
2023/06/24 09:28:09;;;;;;;0.40;0.10;;;;;;;35.55;100.00;100441.88;7395483;19;20029;-86
2023/06/24 09:30:35;;;;;;;0.40;0.00;;;;;;;40.67;63.96;100439.63;7392965;19;20242;-87
2023/06/24 09:33:01;;;;;;;0.30;0.10;;;;;;;27.46;100.00;100451.88;7393216;19;20011;-84
2023/06/24 09:35:27;;;;;;;0.10;0.10;;;;;;;26.25;100.00;100457.03;7389864;19;20390;-83
2023/06/24 09:37:55;;;;;;;0.40;0.15;;;;;;;25.44;100.00;100457.06;7394520;19;20022;-83
2023/06/24 09:40:22;;;;;;;0.40;0.00;;;;;;;25.22;100.00;100455.63;7393862;19;20033;-84
2023/06/24 09:42:54;;;;;;;0.55;0.00;;;;;;;25.16;100.00;100457.88;7396040;19;20357;-87
2023/06/24 09:45:25;;;;;;;4.47;0.90;;;;;;;25.53;100.00;100453.69;7393005;19;20193;-87
2023/06/24 09:47:52;;;;;;;0.25;0.10;;;;;;;25.29;100.00;100449.19;7392082;19;20010;-86
2023/06/24 09:50:18;;;;;;;0.40;0.00;;;;;;;25.63;100.00;100453.88;7391896;19;20022;-86
2023/06/24 09:52:45;;;;;;;0.00;0.00;;;;;;;26.84;100.00;100454.72;7392975;19;20039;-86
2023/06/24 09:55:16;;;;;;;0.17;0.00;;;;;;;26.12;100.00;100460.06;7393102;19;20015;-88
2023/06/24 09:57:45;;;;;;;0.00;0.00;;;;;;;24.71;100.00;100461.19;7393950;19;20516;-89
2023/06/24 10:00:16;;;;;;;0.35;0.00;;;;;;;31.84;100.00;100450.91;7395067;19;20086;-87
2023/06/24 10:02:44;;;;;;;0.15;0.10;;;;;;;27.47;100.00;100455.50;7397380;19;20015;-87
2023/06/24 10:05:12;;;;;;;0.28;0.00;;;;;;;26.01;100.00;100454.72;7390473;19;20074;-85
2023/06/24 10:07:40;;;;;;;0.47;0.10;;;;;;;25.81;100.00;100452.78;7391708;19;20026;-83
2023/06/24 10:10:07;;;;;;;0.32;0.00;;;;;;;25.83;100.00;100453.75;7392652;19;20085;-83
2023/06/24 10:12:34;;;;;;;0.10;0.10;;;;;;;25.51;100.00;100451.38;7391486;19;20034;-84
2023/06/24 10:15:01;;;;;;;2.35;0.10;;;;;;;26.30;100.00;100441.81;7394661;19;20022;-82
2023/06/24 10:17:29;;;;;;;0.10;0.00;;;;;;;26.43;100.00;100447.34;7392226;19;20737;-85
2023/06/24 10:19:55;;;;;;;0.10;0.00;;;;;;;26.51;100.00;100438.78;7393786;19;20042;-85
2023/06/24 10:22:25;;;;;;;0.63;0.00;;;;;;;26.53;100.00;100451.13;7390816;19;20033;-83
2023/06/24 10:24:52;;;;;;;0.00;0.00;;;;;;;26.53;100.00;100448.28;7391418;19;20010;-83
2023/06/24 10:27:22;;;;;;;0.10;0.00;;;;;;;26.67;100.00;100451.69;7397519;19;20101;-85
2023/06/24 10:29:53;;;;;;;0.80;0.10;;;;;;;26.29;100.00;100455.34;7391068;19;20051;-89
2023/06/24 10:32:22;;;;;;;0.20;0.10;;;;;;;44.03;60.38;100431.88;7391854;19;20010;-88
2023/06/24 10:34:54;;;;;;;0.40;0.20;;;;;;;41.85;59.86;100430.44;7392750;19;20029;-87
2023/06/24 10:37:32;;;;;;;0.38;0.30;;;;;;;37.39;68.29;100437.19;7392636;19;20093;-86
2023/06/24 10:40:00;;;;;;;1.75;0.00;;;;;;;39.36;71.23;100428.72;7391355;19;20024;-86
2023/06/24 10:42:42;;;;;;;0.05;0.00;;;;;;;35.63;82.60;100424.94;7388360;19;20029;-86
2023/06/24 10:45:08;;;;;;;0.00;0.00;;;;;;;47.52;43.53;100419.22;7389959;19;20019;-85
2023/06/24 10:47:35;;;;;;;0.55;0.10;;;;;;;36.09;61.67;100431.81;7393868;19;20022;-85
2023/06/24 10:50:02;;;;;;;0.22;0.00;;;;;;;31.84;98.75;100437.28;7390971;19;20021;-85
2023/06/24 10:52:29;;;;;;;0.45;0.00;;;;;;;29.46;100.00;100438.28;7391161;19;20014;-85
2023/06/24 10:54:57;;;;;;;1.15;0.00;;;;;;;27.32;100.00;100447.72;7391400;19;20349;-87
2023/06/24 10:57:26;;;;;;;0.10;0.10;;;;;;;26.45;100.00;100447.53;7392128;19;20043;-85
2023/06/24 10:59:53;;;;;;;0.17;0.00;;;;;;;26.09;100.00;100449.81;7392685;19;20014;-87
2023/06/24 11:02:21;;;;;;;0.10;0.00;;;;;;;26.21;100.00;100451.72;7392720;19;20018;-86
2023/06/24 11:04:50;;;;;;;0.17;0.00;;;;;;;26.56;100.00;100441.41;7391237;19;20030;-85
2023/06/24 11:07:24;;;;;;;0.50;0.05;;;;;;;26.09;100.00;100447.72;7389776;19;20322;-84
2023/06/24 11:09:51;;;;;;;2.28;0.10;;;;;;;26.53;100.00;100441.81;7391537;19;20023;-83
2023/06/24 11:12:18;;;;;;;0.13;0.00;;;;;;;26.00;100.00;100456.81;7393592;19;20011;-83
2023/06/24 11:14:45;;;;;;;0.20;0.00;;;;;;;32.76;100.00;100440.19;7390567;19;20034;-83
2023/06/24 11:17:11;;;;;;;0.10;0.00;;;;;;;27.75;100.00;100452.28;7391535;19;20018;-83
2023/06/24 11:19:39;;;;;;;0.00;0.00;;;;;;;27.53;100.00;100453.16;7390490;19;20015;-82
2023/06/24 11:22:07;;;;;;;0.40;0.22;;;;;;;38.73;68.09;100436.19;7394064;19;20010;-83